createdAt,value
2023-02-01T00:01:26.689Z,5.43
2023-02-01T00:03:55.040Z,5.53
2023-02-01T00:06:23.683Z,5.63
2023-02-01T00:08:54.861Z,6.00
2023-02-01T00:11:23.465Z,6.25
2023-02-01T00:13:51.866Z,6.28
2023-02-01T00:16:25.264Z,6.72
2023-02-01T00:19:00.533Z,6.05
2023-02-01T00:21:28.955Z,5.80
2023-02-01T00:23:56.900Z,6.55
2023-02-01T00:26:27.926Z,6.75
2023-02-01T00:28:55.920Z,5.88
2023-02-01T00:31:23.932Z,6.22
2023-02-01T00:33:52.341Z,6.35
2023-02-01T00:36:20.463Z,6.15
2023-02-01T00:38:48.677Z,6.07
2023-02-01T00:41:18.855Z,5.53
2023-02-01T00:43:47.910Z,5.75
2023-02-01T00:46:17.858Z,5.50
2023-02-01T00:48:45.970Z,5.07
2023-02-01T00:51:16.968Z,5.28
2023-02-01T00:53:45.210Z,5.70
2023-02-01T00:56:14.035Z,4.88
2023-02-01T00:58:46.264Z,5.00
2023-02-01T01:01:26.315Z,4.75
2023-02-01T01:04:00.399Z,5.13
2023-02-01T01:06:31.193Z,5.25
2023-02-01T01:09:01.692Z,4.50
2023-02-01T01:11:32.578Z,5.17
2023-02-01T01:14:01.591Z,5.25
2023-02-01T01:16:31.542Z,5.30
2023-02-01T01:19:00.049Z,5.65
2023-02-01T01:21:29.121Z,5.53
2023-02-01T01:23:57.554Z,4.97
2023-02-01T01:26:28.278Z,5.32
2023-02-01T01:29:01.103Z,4.97
2023-02-01T01:31:29.512Z,5.03
2023-02-01T01:33:59.564Z,5.22
2023-02-01T01:36:29.661Z,5.10
2023-02-01T01:38:57.915Z,5.75
2023-02-01T01:41:35.715Z,4.90
2023-02-01T01:44:50.706Z,5.30
2023-02-01T01:47:19.552Z,5.05
2023-02-01T01:49:47.669Z,4.57
2023-02-01T01:52:16.682Z,4.57
2023-02-01T01:54:48.623Z,4.10
2023-02-01T01:57:23.739Z,4.47
2023-02-01T02:00:03.697Z,4.00
2023-02-01T02:02:43.638Z,4.07
2023-02-01T02:05:12.396Z,4.32
2023-02-01T02:07:45.423Z,4.00
2023-02-01T02:10:16.034Z,4.22
2023-02-01T02:12:46.853Z,4.38
2023-02-01T02:15:17.639Z,3.78
2023-02-01T02:18:05.062Z,3.92
2023-02-01T02:20:57.444Z,4.28
2023-02-01T02:23:42.129Z,3.90
2023-02-01T02:26:47.512Z,3.65
2023-02-01T02:29:24.607Z,3.97
2023-02-01T02:32:16.014Z,4.25
2023-02-01T02:34:51.961Z,4.40
2023-02-01T02:37:37.404Z,4.32
2023-02-01T02:40:28.714Z,4.97
2023-02-01T02:43:21.351Z,5.10
2023-02-01T02:46:16.028Z,5.80
2023-02-01T02:48:53.956Z,5.05
2023-02-01T02:51:49.037Z,5.00
2023-02-01T02:54:50.734Z,4.65
2023-02-01T02:57:48.983Z,4.65
2023-02-01T03:00:39.531Z,4.80
2023-02-01T03:03:27.618Z,4.03
2023-02-01T03:05:55.725Z,4.32
2023-02-01T03:08:28.171Z,3.92
2023-02-01T03:11:15.114Z,4.20
2023-02-01T03:14:00.644Z,4.82
2023-02-01T03:16:59.518Z,4.22
2023-02-01T03:19:34.598Z,4.88
2023-02-01T03:22:13.383Z,4.40
2023-02-01T03:24:44.683Z,4.22
2023-02-01T03:27:32.474Z,4.43
2023-02-01T03:30:13.154Z,4.70
2023-02-01T03:33:03.156Z,5.28
2023-02-01T03:35:58.722Z,5.20
2023-02-01T03:38:36.392Z,4.97
2023-02-01T03:41:29.360Z,5.57
2023-02-01T03:44:09.231Z,5.50
2023-02-01T03:47:22.285Z,5.40
2023-02-01T03:49:59.839Z,5.22
2023-02-01T03:52:36.761Z,5.07
2023-02-01T03:57:53.861Z,5.70
2023-02-01T04:00:25.583Z,5.65
2023-02-01T04:02:55.945Z,5.85
2023-02-01T04:05:24.503Z,5.80
2023-02-01T04:08:03.524Z,5.75
2023-02-01T04:10:31.449Z,5.50
2023-02-01T04:12:59.537Z,5.13
2023-02-01T04:15:27.506Z,6.38
2023-02-01T04:17:55.433Z,5.85
2023-02-01T04:20:23.724Z,6.43
2023-02-01T04:22:51.812Z,6.13
2023-02-01T04:25:19.888Z,5.88
2023-02-01T04:27:48.386Z,6.75
2023-02-01T04:30:16.654Z,6.80
2023-02-01T04:32:44.916Z,6.32
2023-02-01T04:35:13.764Z,6.40
2023-02-01T04:37:41.660Z,6.03
2023-02-01T04:40:10.407Z,6.57
2023-02-01T04:42:38.449Z,6.82
2023-02-01T04:45:06.929Z,6.22
2023-02-01T04:47:34.892Z,6.25
2023-02-01T04:50:02.929Z,6.50
2023-02-01T04:52:30.859Z,5.47
2023-02-01T04:55:01.224Z,6.60
2023-02-01T04:57:29.137Z,6.40
2023-02-01T04:59:57.057Z,6.47
2023-02-01T05:02:25.009Z,6.53
2023-02-01T05:04:53.049Z,6.50
2023-02-01T05:07:25.174Z,6.82
2023-02-01T05:12:52.440Z,5.82
2023-02-01T05:15:20.423Z,6.65
2023-02-01T05:17:48.302Z,5.03
2023-02-01T05:20:16.407Z,3.60
2023-02-01T05:22:44.676Z,2.83
2023-02-01T05:25:12.630Z,2.50
2023-02-01T05:27:40.666Z,2.75
2023-02-01T05:30:09.442Z,2.60
2023-02-01T05:32:37.457Z,2.33
2023-02-01T05:35:05.604Z,1.98
2023-02-01T05:37:33.551Z,2.00
2023-02-01T05:40:01.523Z,2.17
2023-02-01T05:42:29.484Z,2.10
2023-02-01T05:44:57.385Z,2.42
2023-02-01T05:47:25.270Z,2.40
2023-02-01T05:49:53.256Z,2.60
2023-02-01T05:52:21.321Z,2.63
2023-02-01T05:54:49.475Z,2.60
2023-02-01T05:57:17.743Z,2.17
2023-02-01T05:59:49.516Z,2.80
2023-02-01T06:02:18.542Z,2.50
2023-02-01T06:04:46.502Z,2.38
2023-02-01T06:07:14.505Z,1.98
2023-02-01T06:09:42.405Z,1.48
2023-02-01T06:12:10.661Z,1.33
2023-02-01T06:14:39.173Z,1.40
2023-02-01T06:17:08.353Z,1.20
2023-02-01T06:19:36.247Z,1.08
2023-02-01T06:22:04.133Z,0.98
2023-02-01T06:24:31.995Z,1.27
2023-02-01T06:26:59.890Z,1.05
2023-02-01T06:29:36.239Z,1.35
2023-02-01T06:32:07.478Z,1.45
2023-02-01T06:34:36.255Z,1.40
2023-02-01T06:37:04.140Z,1.63
2023-02-01T06:39:32.095Z,1.70
2023-02-01T06:41:59.970Z,2.25
2023-02-01T06:44:27.893Z,2.78
2023-02-01T06:46:56.955Z,2.70
2023-02-01T06:49:25.280Z,2.25
2023-02-01T06:51:53.196Z,1.90
2023-02-01T06:54:21.395Z,2.20
2023-02-01T06:56:56.632Z,1.95
2023-02-01T06:59:24.632Z,1.50
2023-02-01T07:01:52.633Z,1.63
2023-02-01T07:04:20.543Z,2.08
2023-02-01T07:06:48.439Z,2.05
2023-02-01T07:09:16.548Z,2.25
2023-02-01T07:11:46.107Z,2.30
2023-02-01T07:14:14.607Z,2.00
2023-02-01T07:16:42.559Z,2.25
2023-02-01T07:19:10.533Z,2.60
2023-02-01T07:21:38.408Z,2.55
2023-02-01T07:24:06.815Z,2.30
2023-02-01T07:26:34.808Z,3.15
2023-02-01T07:29:02.847Z,2.67
2023-02-01T07:31:31.066Z,2.88
2023-02-01T07:34:00.361Z,2.50
2023-02-01T07:36:28.397Z,2.60
2023-02-01T07:38:57.083Z,2.78
2023-02-01T07:41:25.180Z,2.60
2023-02-01T07:43:56.775Z,2.50
2023-02-01T07:46:24.953Z,2.50
2023-02-01T07:48:52.907Z,2.80
2023-02-01T07:51:20.871Z,2.83
2023-02-01T07:53:48.796Z,2.70
2023-02-01T07:56:19.788Z,2.70
2023-02-01T07:58:58.135Z,2.10
2023-02-01T08:01:30.683Z,2.00
2023-02-01T08:04:03.659Z,1.95
2023-02-01T08:06:34.354Z,2.10
2023-02-01T08:09:02.470Z,2.15
2023-02-01T08:11:30.724Z,2.28
2023-02-01T08:13:59.784Z,2.17
2023-02-01T08:16:27.997Z,2.20
2023-02-01T08:18:56.328Z,1.70
2023-02-01T08:21:27.080Z,1.48
2023-02-01T08:23:55.204Z,1.75
2023-02-01T08:26:26.085Z,1.63
2023-02-01T08:28:57.665Z,1.70
2023-02-01T08:31:27.084Z,2.00
2023-02-01T08:33:58.765Z,2.50
2023-02-01T08:36:28.210Z,1.40
2023-02-01T08:38:56.340Z,1.65
2023-02-01T08:41:31.154Z,2.50
2023-02-01T08:43:59.830Z,1.98
2023-02-01T08:46:28.493Z,1.85
2023-02-01T08:48:56.660Z,1.92
2023-02-01T08:51:25.362Z,2.03
2023-02-01T08:53:53.827Z,1.85
2023-02-01T08:56:22.567Z,1.95
2023-02-01T08:58:50.467Z,2.35
2023-02-01T09:01:19.661Z,2.50
2023-02-01T09:03:47.967Z,2.42
2023-02-01T09:06:21.871Z,2.55
2023-02-01T09:08:50.623Z,2.67
2023-02-01T09:11:21.343Z,2.60
2023-02-01T09:13:50.299Z,2.90
2023-02-01T09:16:19.879Z,3.15
2023-02-01T09:18:56.053Z,2.55
2023-02-01T09:21:36.020Z,2.40
2023-02-01T09:24:04.557Z,2.20
2023-02-01T09:26:33.323Z,1.80
2023-02-01T09:29:02.553Z,1.45
2023-02-01T09:31:30.768Z,1.67
2023-02-01T09:33:58.911Z,1.67
2023-02-01T09:36:26.829Z,1.42
2023-02-01T09:38:55.036Z,1.55
2023-02-01T09:41:47.790Z,1.75
2023-02-01T09:44:44.263Z,1.30
2023-02-01T09:47:15.700Z,1.40
2023-02-01T09:50:27.528Z,1.20
2023-02-01T09:55:50.166Z,1.88
2023-02-01T09:58:55.010Z,1.70
2023-02-01T10:01:28.955Z,1.70
2023-02-01T10:04:18.784Z,1.60
2023-02-01T10:06:58.034Z,1.90
2023-02-01T10:09:47.605Z,2.60
2023-02-01T10:12:18.549Z,1.90
2023-02-01T10:15:17.061Z,1.90
2023-02-01T10:17:47.660Z,2.58
2023-02-01T10:20:52.659Z,2.33
2023-02-01T10:26:31.229Z,2.42
2023-02-01T10:29:03.438Z,3.17
2023-02-01T10:31:35.806Z,2.55
2023-02-01T10:34:16.433Z,2.95
2023-02-01T10:36:56.884Z,3.00
2023-02-01T10:39:25.204Z,2.80
2023-02-01T10:41:58.186Z,3.47
2023-02-01T10:44:32.435Z,3.00
2023-02-01T10:47:00.429Z,2.60
2023-02-01T10:49:34.637Z,3.15
2023-02-01T10:52:14.676Z,2.90
2023-02-01T10:54:42.693Z,2.97
2023-02-01T10:57:13.042Z,3.10
2023-02-01T10:59:41.083Z,3.50
2023-02-01T11:02:30.075Z,3.05
2023-02-01T11:05:18.309Z,2.40
2023-02-01T11:07:52.307Z,3.05
2023-02-01T11:10:43.122Z,3.10
2023-02-01T11:13:20.915Z,3.85
2023-02-01T11:15:57.284Z,2.70
2023-02-01T11:18:31.619Z,2.95
2023-02-01T11:21:01.515Z,3.78
2023-02-01T11:23:35.608Z,2.97
2023-02-01T11:26:29.813Z,2.75
2023-02-01T11:29:12.214Z,2.88
2023-02-01T11:31:41.261Z,2.10
2023-02-01T11:34:15.089Z,2.72
2023-02-01T11:36:43.571Z,2.10
2023-02-01T11:39:21.468Z,2.92
2023-02-01T11:42:28.822Z,2.70
2023-02-01T11:45:20.194Z,2.78
2023-02-01T11:47:48.521Z,2.40
2023-02-01T11:50:41.479Z,2.38
2023-02-01T11:53:17.831Z,2.20
2023-02-01T11:56:23.259Z,2.53
2023-02-01T11:59:18.423Z,2.95
2023-02-01T12:02:40.318Z,3.17
2023-02-01T12:07:50.813Z,3.42
2023-02-01T12:10:33.794Z,2.53
2023-02-01T12:13:45.002Z,2.63
2023-02-01T12:16:38.002Z,3.20
2023-02-01T12:19:13.720Z,3.30
2023-02-01T12:22:19.412Z,3.17
2023-02-01T12:25:14.003Z,2.72
2023-02-01T12:28:06.691Z,2.67
2023-02-01T12:31:14.500Z,3.72
2023-02-01T12:33:42.926Z,3.25
2023-02-01T12:36:28.166Z,2.92
2023-02-01T12:39:09.975Z,3.03
2023-02-01T12:41:50.038Z,3.42
2023-02-01T12:44:34.614Z,3.50
2023-02-01T12:47:24.464Z,2.88
2023-02-01T12:50:07.109Z,2.80
2023-02-01T12:52:48.332Z,2.60
2023-02-01T12:55:43.397Z,3.25
2023-02-01T12:58:22.688Z,2.95
2023-02-01T13:01:13.852Z,2.60
2023-02-01T13:04:08.071Z,2.42
2023-02-01T13:07:02.506Z,2.67
2023-02-01T13:09:40.608Z,2.42
2023-02-01T13:12:19.663Z,2.30
2023-02-01T13:14:56.455Z,2.97
2023-02-01T13:17:33.891Z,2.20
2023-02-01T13:20:12.917Z,2.55
2023-02-01T13:22:45.678Z,2.95
2023-02-01T13:25:39.461Z,3.53
2023-02-01T13:28:14.935Z,2.40
2023-02-01T13:31:01.052Z,2.40
2023-02-01T13:33:52.495Z,2.58
2023-02-01T13:37:08.745Z,2.83
2023-02-01T13:39:55.295Z,2.75
2023-02-01T13:42:31.889Z,3.28
2023-02-01T13:45:06.958Z,2.25
2023-02-01T13:47:41.087Z,2.67
2023-02-01T13:50:27.035Z,2.15
2023-02-01T13:53:05.139Z,2.55
2023-02-01T13:55:35.921Z,2.00
2023-02-01T13:58:07.982Z,2.67
2023-02-01T14:00:44.986Z,2.53
2023-02-01T14:03:22.473Z,2.17
2023-02-01T14:05:53.091Z,2.40
2023-02-01T14:08:42.904Z,2.75
2023-02-01T14:11:36.957Z,2.40
2023-02-01T14:14:16.787Z,2.45
2023-02-01T14:16:46.480Z,2.05
2023-02-01T14:19:29.763Z,2.60
2023-02-01T14:22:16.943Z,2.70
2023-02-01T14:24:56.228Z,1.60
2023-02-01T14:27:27.491Z,1.92
2023-02-01T14:30:02.244Z,2.50
2023-02-01T14:32:36.146Z,2.38
2023-02-01T14:35:19.989Z,2.80
2023-02-01T14:37:48.919Z,2.53
2023-02-01T14:40:25.038Z,2.22
2023-02-01T14:42:57.664Z,2.33
2023-02-01T14:45:29.580Z,2.65
2023-02-01T14:48:09.679Z,2.20
2023-02-01T14:50:47.115Z,3.20
2023-02-01T14:53:14.970Z,2.78
2023-02-01T14:55:50.962Z,2.17
2023-02-01T14:58:27.625Z,2.33
2023-02-01T15:01:03.911Z,2.15
2023-02-01T15:03:56.986Z,2.47
2023-02-01T15:06:29.517Z,2.53
2023-02-01T15:09:16.088Z,2.70
2023-02-01T15:12:17.804Z,2.72
2023-02-01T15:17:43.404Z,2.33
2023-02-01T15:20:32.240Z,2.38
2023-02-01T15:23:05.503Z,2.33
2023-02-01T15:25:42.760Z,2.78
2023-02-01T15:28:16.501Z,2.28
2023-02-01T15:31:03.583Z,2.97
2023-02-01T15:33:33.147Z,2.30
2023-02-01T15:36:14.771Z,2.75
2023-02-01T15:38:44.863Z,2.55
2023-02-01T15:41:18.324Z,2.70
2023-02-01T15:44:04.172Z,2.42
2023-02-01T15:46:40.362Z,2.20
2023-02-01T15:49:33.956Z,1.90
2023-02-01T15:52:03.479Z,3.67
2023-02-01T15:54:38.085Z,2.20
2023-02-01T15:57:07.536Z,2.25
2023-02-01T15:59:47.362Z,3.38
2023-02-01T16:02:30.331Z,2.33
2023-02-01T16:04:58.764Z,2.35
2023-02-01T16:07:33.331Z,2.03
2023-02-01T16:10:08.993Z,2.58
2023-02-01T16:12:45.123Z,2.55
2023-02-01T16:15:14.753Z,2.85
2023-02-01T16:17:42.821Z,2.10
2023-02-01T16:20:11.629Z,2.72
2023-02-01T16:22:39.510Z,2.00
2023-02-01T16:25:08.124Z,2.00
2023-02-01T16:27:36.018Z,2.08
2023-02-01T16:30:04.466Z,2.17
2023-02-01T16:32:32.623Z,3.05
2023-02-01T16:35:00.820Z,2.40
2023-02-01T16:37:30.357Z,2.38
2023-02-01T16:42:39.988Z,2.08
2023-02-01T16:45:09.344Z,2.75
2023-02-01T16:47:40.517Z,2.10
2023-02-01T16:50:23.668Z,1.70
2023-02-01T16:52:54.063Z,1.58
2023-02-01T16:55:24.994Z,1.80
2023-02-01T16:57:55.158Z,2.53
2023-02-01T17:00:27.159Z,1.70
2023-02-01T17:02:58.067Z,2.17
2023-02-01T17:05:26.471Z,2.20
2023-02-01T17:07:54.680Z,2.60
2023-02-01T17:10:35.541Z,1.98
2023-02-01T17:13:04.214Z,2.25
2023-02-01T17:15:36.586Z,2.33
2023-02-01T17:18:05.409Z,1.70
2023-02-01T17:20:34.295Z,2.65
2023-02-01T17:23:02.285Z,2.83
2023-02-01T17:25:32.819Z,3.08
2023-02-01T17:28:01.138Z,3.67
2023-02-01T17:30:29.403Z,4.30
2023-02-01T17:32:57.968Z,2.22
2023-02-01T17:35:28.594Z,1.98
2023-02-01T17:37:57.101Z,1.60
2023-02-01T17:40:25.730Z,2.03
2023-02-01T17:42:58.634Z,1.67
2023-02-01T17:45:26.883Z,2.80
2023-02-01T17:47:55.201Z,2.35
2023-02-01T17:50:31.985Z,2.10
2023-02-01T17:53:02.734Z,2.30
2023-02-01T17:55:35.749Z,2.20
2023-02-01T17:58:03.649Z,2.13
2023-02-01T18:00:31.789Z,3.05
2023-02-01T18:02:59.783Z,2.22
2023-02-01T18:05:37.983Z,2.50
2023-02-01T18:08:06.137Z,2.22
2023-02-01T18:10:34.197Z,2.10
2023-02-01T18:13:04.145Z,2.63
2023-02-01T18:15:32.880Z,1.92
2023-02-01T18:18:00.821Z,1.85
2023-02-01T18:20:29.545Z,2.20
2023-02-01T18:22:57.543Z,2.38
2023-02-01T18:25:31.665Z,3.03
2023-02-01T18:27:59.666Z,2.95
2023-02-01T18:30:32.800Z,2.63
2023-02-01T18:33:00.883Z,2.35
2023-02-01T18:35:31.299Z,2.35
2023-02-01T18:37:59.711Z,2.72
2023-02-01T18:40:32.355Z,2.92
2023-02-01T18:43:01.043Z,3.03
2023-02-01T18:45:38.149Z,3.05
2023-02-01T18:48:07.747Z,2.85
2023-02-01T18:50:41.917Z,2.60
2023-02-01T18:53:17.843Z,2.80
2023-02-01T18:55:45.704Z,2.50
2023-02-01T18:58:16.342Z,1.95
2023-02-01T19:00:45.424Z,2.75
2023-02-01T19:03:14.887Z,2.60
2023-02-01T19:05:43.138Z,3.20
2023-02-01T19:08:11.285Z,3.17
2023-02-01T19:10:39.858Z,2.65
2023-02-01T19:13:07.937Z,2.40
2023-02-01T19:15:41.296Z,3.28
2023-02-01T19:18:11.227Z,2.63
2023-02-01T19:20:42.456Z,2.53
2023-02-01T19:23:10.740Z,3.50
2023-02-01T19:25:39.252Z,2.40
2023-02-01T19:28:07.275Z,3.03
2023-02-01T19:30:35.484Z,3.15
2023-02-01T19:33:06.486Z,3.40
2023-02-01T19:35:34.879Z,3.40
2023-02-01T19:38:02.795Z,3.40
2023-02-01T19:40:31.050Z,3.08
2023-02-01T19:42:59.100Z,3.20
2023-02-01T19:45:27.271Z,3.33
2023-02-01T19:47:55.288Z,2.58
2023-02-01T19:50:23.905Z,3.17
2023-02-01T19:52:51.858Z,2.88
2023-02-01T19:55:19.845Z,3.38
2023-02-01T19:57:47.797Z,3.40
2023-02-01T20:00:18.067Z,2.65
2023-02-01T20:02:47.355Z,2.72
2023-02-01T20:05:16.251Z,3.30
2023-02-01T20:07:44.235Z,2.92
2023-02-01T20:10:13.886Z,2.92
2023-02-01T20:12:44.868Z,3.20
2023-02-01T20:15:12.870Z,3.42
2023-02-01T20:17:40.816Z,3.13
2023-02-01T20:20:09.801Z,3.53
2023-02-01T20:22:37.744Z,2.75
2023-02-01T20:25:06.641Z,3.47
2023-02-01T20:27:35.414Z,3.50
2023-02-01T20:30:03.426Z,3.28
2023-02-01T20:32:31.958Z,2.70
2023-02-01T20:34:59.917Z,3.72
2023-02-01T20:37:27.959Z,2.85
2023-02-01T20:39:55.896Z,3.30
2023-02-01T20:42:23.844Z,3.22
2023-02-01T20:44:51.804Z,2.65
2023-02-01T20:47:19.843Z,2.50
2023-02-01T20:49:47.802Z,3.22
2023-02-01T20:52:15.924Z,3.33
2023-02-01T20:54:44.063Z,2.67
2023-02-01T20:57:12.239Z,2.20
2023-02-01T20:59:40.119Z,2.80
2023-02-01T21:02:08.212Z,3.38
2023-02-01T21:04:36.187Z,2.53
2023-02-01T21:07:04.683Z,2.50
2023-02-01T21:09:32.705Z,2.63
2023-02-01T21:12:00.988Z,3.00
2023-02-01T21:14:28.939Z,2.35
2023-02-01T21:16:56.877Z,3.08
2023-02-01T21:19:27.301Z,2.40
2023-02-01T21:21:55.591Z,2.75
2023-02-01T21:24:29.594Z,2.80
2023-02-01T21:26:57.645Z,3.30
2023-02-01T21:29:25.728Z,3.25
2023-02-01T21:31:54.104Z,3.08
2023-02-01T21:34:25.279Z,2.72
2023-02-01T21:36:53.595Z,3.35
2023-02-01T21:39:21.505Z,3.97
2023-02-01T21:42:10.570Z,3.25
2023-02-01T21:44:38.580Z,3.35
2023-02-01T21:47:11.642Z,2.90
2023-02-01T21:49:39.724Z,3.75
2023-02-01T21:52:08.466Z,3.60
2023-02-01T21:54:36.846Z,2.78
2023-02-01T21:57:04.802Z,3.30
2023-02-01T21:59:32.736Z,2.55
2023-02-01T22:02:00.801Z,2.58
2023-02-01T22:04:29.210Z,2.60
2023-02-01T22:06:57.178Z,3.25
2023-02-01T22:09:26.859Z,2.45
2023-02-01T22:11:56.592Z,3.05
2023-02-01T22:14:25.231Z,2.80
2023-02-01T22:16:53.340Z,2.28
2023-02-01T22:19:21.291Z,3.40
2023-02-01T22:21:49.731Z,2.78
2023-02-01T22:24:21.475Z,1.92
2023-02-01T22:26:50.058Z,2.92
2023-02-01T22:29:20.310Z,2.22
2023-02-01T22:31:48.458Z,2.42
2023-02-01T22:34:17.169Z,2.60
2023-02-01T22:36:48.719Z,2.78
2023-02-01T22:39:16.820Z,2.45
2023-02-01T22:41:44.801Z,2.33
2023-02-01T22:44:12.985Z,2.38
2023-02-01T22:46:41.310Z,2.92
2023-02-01T22:49:12.125Z,2.47
2023-02-01T22:51:40.428Z,2.28
2023-02-01T22:54:10.061Z,2.70
2023-02-01T22:56:38.730Z,2.53
2023-02-01T22:59:08.711Z,3.28
2023-02-01T23:01:36.812Z,2.60
2023-02-01T23:04:08.079Z,2.60
2023-02-01T23:06:36.682Z,2.15
2023-02-01T23:09:17.514Z,2.63
2023-02-01T23:11:46.222Z,2.20
2023-02-01T23:14:15.481Z,3.10
2023-02-01T23:16:46.572Z,2.85
2023-02-01T23:19:15.055Z,3.15
2023-02-01T23:21:43.327Z,2.65
2023-02-01T23:24:12.262Z,3.13
2023-02-01T23:26:40.366Z,2.50
2023-02-01T23:29:08.406Z,1.67
2023-02-01T23:31:36.711Z,2.60
2023-02-01T23:34:05.787Z,2.58
2023-02-01T23:36:34.333Z,2.30
2023-02-01T23:39:02.819Z,1.92
2023-02-01T23:41:31.382Z,1.55
2023-02-01T23:43:59.467Z,3.00
2023-02-01T23:46:29.154Z,2.70
2023-02-01T23:48:57.458Z,2.85
2023-02-01T23:51:26.495Z,2.45
2023-02-01T23:53:55.197Z,2.78
2023-02-01T23:56:34.439Z,2.85
2023-02-01T23:59:12.630Z,2.92
